sensor_id;sensor_type;location;lat;lon;timestamp;P1;durP1;ratioP1;P2;durP2;ratioP2
11823;SDS011;5969;50.780;7.726;2023-04-24T00:00:30;2.38;;;0.70;;
11823;SDS011;5969;50.780;7.726;2023-04-24T00:03:39;1.40;;;0.70;;
11823;SDS011;5969;50.780;7.726;2023-04-24T00:06:22;2.00;;;0.73;;
11823;SDS011;5969;50.780;7.726;2023-04-24T00:12:19;3.03;;;0.50;;
11823;SDS011;5969;50.780;7.726;2023-04-24T00:14:47;1.23;;;0.55;;
11823;SDS011;5969;50.780;7.726;2023-04-24T00:17:14;2.53;;;0.93;;
11823;SDS011;5969;50.780;7.726;2023-04-24T00:20:01;3.83;;;0.80;;
11823;SDS011;5969;50.780;7.726;2023-04-24T00:22:55;1.05;;;0.90;;
11823;SDS011;5969;50.780;7.726;2023-04-24T00:29:12;3.60;;;0.85;;
11823;SDS011;5969;50.780;7.726;2023-04-24T00:32:10;0.98;;;0.80;;
11823;SDS011;5969;50.780;7.726;2023-04-24T00:35:05;1.88;;;0.65;;
11823;SDS011;5969;50.780;7.726;2023-04-24T00:48:22;3.25;;;0.68;;
11823;SDS011;5969;50.780;7.726;2023-04-24T00:50:35;1.23;;;0.57;;
11823;SDS011;5969;50.780;7.726;2023-04-24T01:03:39;0.82;;;0.80;;
11823;SDS011;5969;50.780;7.726;2023-04-24T01:06:07;0.80;;;0.80;;
11823;SDS011;5969;50.780;7.726;2023-04-24T01:08:38;1.23;;;0.80;;
11823;SDS011;5969;50.780;7.726;2023-04-24T01:11:21;0.90;;;0.70;;
11823;SDS011;5969;50.780;7.726;2023-04-24T01:14:04;0.73;;;0.70;;
11823;SDS011;5969;50.780;7.726;2023-04-24T01:16:38;3.13;;;0.60;;
11823;SDS011;5969;50.780;7.726;2023-04-24T01:19:48;1.30;;;0.60;;
11823;SDS011;5969;50.780;7.726;2023-04-24T01:22:25;0.77;;;0.45;;
11823;SDS011;5969;50.780;7.726;2023-04-24T01:31:40;1.58;;;0.57;;
11823;SDS011;5969;50.780;7.726;2023-04-24T01:50:43;1.00;;;0.70;;
11823;SDS011;5969;50.780;7.726;2023-04-24T01:54:15;0.70;;;0.70;;
11823;SDS011;5969;50.780;7.726;2023-04-24T05:27:13;4.13;;;3.47;;
11823;SDS011;5969;50.780;7.726;2023-04-24T05:29:41;3.78;;;3.10;;
11823;SDS011;5969;50.780;7.726;2023-04-24T05:32:11;4.63;;;3.40;;
11823;SDS011;5969;50.780;7.726;2023-04-24T05:34:57;3.70;;;3.28;;
11823;SDS011;5969;50.780;7.726;2023-04-24T05:37:24;3.83;;;3.53;;
11823;SDS011;5969;50.780;7.726;2023-04-24T05:40:00;5.40;;;3.20;;
11823;SDS011;5969;50.780;7.726;2023-04-24T05:42:30;3.95;;;3.53;;
11823;SDS011;5969;50.780;7.726;2023-04-24T05:44:57;3.65;;;3.35;;
11823;SDS011;5969;50.780;7.726;2023-04-24T05:47:24;4.78;;;3.90;;
11823;SDS011;5969;50.780;7.726;2023-04-24T15:03:51;6.28;;;4.63;;
11823;SDS011;5969;50.780;7.726;2023-04-24T15:06:18;9.55;;;4.78;;
11823;SDS011;5969;50.780;7.726;2023-04-24T15:08:45;6.80;;;4.82;;
11823;SDS011;5969;50.780;7.726;2023-04-24T15:11:12;7.00;;;4.22;;
11823;SDS011;5969;50.780;7.726;2023-04-24T15:13:39;8.38;;;4.15;;
11823;SDS011;5969;50.780;7.726;2023-04-24T15:16:05;7.10;;;4.30;;
11823;SDS011;5969;50.780;7.726;2023-04-24T15:18:32;6.32;;;4.28;;
11823;SDS011;5969;50.780;7.726;2023-04-24T15:21:00;6.90;;;4.50;;
11823;SDS011;5969;50.780;7.726;2023-04-24T15:23:27;7.28;;;3.97;;
11823;SDS011;5969;50.780;7.726;2023-04-24T15:25:53;7.18;;;4.05;;
11823;SDS011;5969;50.780;7.726;2023-04-24T15:28:21;6.50;;;3.70;;
11823;SDS011;5969;50.780;7.726;2023-04-24T15:30:47;7.47;;;4.03;;
11823;SDS011;5969;50.780;7.726;2023-04-24T15:33:14;6.75;;;4.22;;
11823;SDS011;5969;50.780;7.726;2023-04-24T15:35:41;6.53;;;3.45;;
11823;SDS011;5969;50.780;7.726;2023-04-24T15:38:09;7.57;;;4.00;;
11823;SDS011;5969;50.780;7.726;2023-04-24T15:40:36;9.82;;;4.10;;
11823;SDS011;5969;50.780;7.726;2023-04-24T15:43:03;6.32;;;3.90;;
11823;SDS011;5969;50.780;7.726;2023-04-24T15:45:30;9.20;;;3.83;;
11823;SDS011;5969;50.780;7.726;2023-04-24T15:47:57;4.90;;;3.15;;
11823;SDS011;5969;50.780;7.726;2023-04-24T15:50:24;5.20;;;3.72;;
11823;SDS011;5969;50.780;7.726;2023-04-24T15:52:51;4.78;;;3.38;;
11823;SDS011;5969;50.780;7.726;2023-04-24T15:55:19;7.78;;;3.63;;
11823;SDS011;5969;50.780;7.726;2023-04-24T15:57:46;5.72;;;3.85;;
11823;SDS011;5969;50.780;7.726;2023-04-24T16:00:13;9.05;;;3.95;;
11823;SDS011;5969;50.780;7.726;2023-04-24T16:02:40;5.63;;;3.35;;
11823;SDS011;5969;50.780;7.726;2023-04-24T16:05:08;5.65;;;3.45;;
11823;SDS011;5969;50.780;7.726;2023-04-24T16:07:39;4.95;;;3.67;;
11823;SDS011;5969;50.780;7.726;2023-04-24T16:10:06;8.32;;;4.15;;
11823;SDS011;5969;50.780;7.726;2023-04-24T16:12:35;6.20;;;4.15;;
11823;SDS011;5969;50.780;7.726;2023-04-24T16:15:02;4.90;;;3.47;;
11823;SDS011;5969;50.780;7.726;2023-04-24T16:17:29;7.78;;;4.25;;
11823;SDS011;5969;50.780;7.726;2023-04-24T16:19:56;6.57;;;3.95;;
11823;SDS011;5969;50.780;7.726;2023-04-24T16:22:23;7.10;;;3.47;;
11823;SDS011;5969;50.780;7.726;2023-04-24T16:24:49;6.05;;;3.85;;
11823;SDS011;5969;50.780;7.726;2023-04-24T16:27:16;6.75;;;3.53;;
11823;SDS011;5969;50.780;7.726;2023-04-24T16:29:44;5.03;;;3.55;;
11823;SDS011;5969;50.780;7.726;2023-04-24T16:32:11;6.57;;;3.72;;
11823;SDS011;5969;50.780;7.726;2023-04-24T16:34:38;7.38;;;3.63;;
11823;SDS011;5969;50.780;7.726;2023-04-24T16:37:04;6.80;;;3.08;;
11823;SDS011;5969;50.780;7.726;2023-04-24T16:39:31;6.85;;;3.50;;
11823;SDS011;5969;50.780;7.726;2023-04-24T16:41:58;7.75;;;3.53;;
11823;SDS011;5969;50.780;7.726;2023-04-24T16:44:25;4.85;;;3.22;;
11823;SDS011;5969;50.780;7.726;2023-04-24T16:46:53;4.63;;;3.40;;
11823;SDS011;5969;50.780;7.726;2023-04-24T16:49:20;6.93;;;3.10;;
11823;SDS011;5969;50.780;7.726;2023-04-24T16:51:47;4.32;;;3.42;;
11823;SDS011;5969;50.780;7.726;2023-04-24T16:54:14;6.22;;;3.35;;
11823;SDS011;5969;50.780;7.726;2023-04-24T16:56:41;6.30;;;3.25;;
11823;SDS011;5969;50.780;7.726;2023-04-24T16:59:07;4.93;;;3.45;;
11823;SDS011;5969;50.780;7.726;2023-04-24T17:01:34;4.95;;;3.55;;
11823;SDS011;5969;50.780;7.726;2023-04-24T17:04:02;5.65;;;3.65;;
11823;SDS011;5969;50.780;7.726;2023-04-24T17:06:29;7.55;;;3.45;;
11823;SDS011;5969;50.780;7.726;2023-04-24T17:08:56;4.68;;;3.10;;
11823;SDS011;5969;50.780;7.726;2023-04-24T17:11:24;6.18;;;3.78;;
11823;SDS011;5969;50.780;7.726;2023-04-24T17:13:52;9.10;;;3.67;;
11823;SDS011;5969;50.780;7.726;2023-04-24T17:16:19;4.28;;;3.10;;
11823;SDS011;5969;50.780;7.726;2023-04-24T17:18:45;5.07;;;3.38;;
11823;SDS011;5969;50.780;7.726;2023-04-24T17:21:13;5.15;;;3.45;;
11823;SDS011;5969;50.780;7.726;2023-04-24T17:23:42;5.18;;;3.03;;
11823;SDS011;5969;50.780;7.726;2023-04-24T17:26:09;7.55;;;3.53;;
11823;SDS011;5969;50.780;7.726;2023-04-24T17:28:36;6.20;;;3.28;;
11823;SDS011;5969;50.780;7.726;2023-04-24T17:31:03;5.28;;;3.20;;
11823;SDS011;5969;50.780;7.726;2023-04-24T17:33:30;6.82;;;3.47;;
11823;SDS011;5969;50.780;7.726;2023-04-24T17:35:57;6.32;;;3.90;;
11823;SDS011;5969;50.780;7.726;2023-04-24T17:38:27;4.63;;;3.63;;
11823;SDS011;5969;50.780;7.726;2023-04-24T17:40:54;6.97;;;3.92;;
11823;SDS011;5969;50.780;7.726;2023-04-24T17:43:22;5.65;;;3.28;;
11823;SDS011;5969;50.780;7.726;2023-04-24T17:45:50;6.45;;;3.65;;
11823;SDS011;5969;50.780;7.726;2023-04-24T17:48:19;4.65;;;3.38;;
11823;SDS011;5969;50.780;7.726;2023-04-24T17:50:46;9.40;;;3.60;;
11823;SDS011;5969;50.780;7.726;2023-04-24T17:53:13;5.72;;;3.45;;
11823;SDS011;5969;50.780;7.726;2023-04-24T17:55:44;6.63;;;3.45;;
11823;SDS011;5969;50.780;7.726;2023-04-24T17:58:11;8.65;;;3.33;;
11823;SDS011;5969;50.780;7.726;2023-04-24T18:00:38;4.80;;;4.28;;
11823;SDS011;5969;50.780;7.726;2023-04-24T18:03:05;7.47;;;4.45;;
11823;SDS011;5969;50.780;7.726;2023-04-24T18:05:34;5.05;;;3.72;;
11823;SDS011;5969;50.780;7.726;2023-04-24T18:08:02;6.03;;;4.07;;
11823;SDS011;5969;50.780;7.726;2023-04-24T18:10:30;7.47;;;4.20;;
11823;SDS011;5969;50.780;7.726;2023-04-24T18:12:59;9.43;;;4.00;;
11823;SDS011;5969;50.780;7.726;2023-04-24T18:15:26;6.38;;;3.80;;
11823;SDS011;5969;50.780;7.726;2023-04-24T18:17:53;6.47;;;4.95;;
11823;SDS011;5969;50.780;7.726;2023-04-24T18:20:19;6.10;;;3.33;;
11823;SDS011;5969;50.780;7.726;2023-04-24T18:22:46;5.72;;;3.70;;
11823;SDS011;5969;50.780;7.726;2023-04-24T18:25:13;7.32;;;3.80;;
11823;SDS011;5969;50.780;7.726;2023-04-24T18:27:40;7.20;;;3.90;;
11823;SDS011;5969;50.780;7.726;2023-04-24T18:30:09;5.30;;;3.95;;
11823;SDS011;5969;50.780;7.726;2023-04-24T18:32:36;6.18;;;4.28;;
11823;SDS011;5969;50.780;7.726;2023-04-24T18:35:03;6.57;;;3.97;;
11823;SDS011;5969;50.780;7.726;2023-04-24T18:37:40;7.55;;;3.85;;
11823;SDS011;5969;50.780;7.726;2023-04-24T18:40:09;7.65;;;4.32;;
11823;SDS011;5969;50.780;7.726;2023-04-24T18:42:36;7.07;;;4.30;;
11823;SDS011;5969;50.780;7.726;2023-04-24T18:45:03;6.32;;;4.25;;
11823;SDS011;5969;50.780;7.726;2023-04-24T18:47:32;4.75;;;3.88;;
11823;SDS011;5969;50.780;7.726;2023-04-24T18:49:59;8.38;;;4.28;;
11823;SDS011;5969;50.780;7.726;2023-04-24T18:52:27;8.23;;;4.28;;
11823;SDS011;5969;50.780;7.726;2023-04-24T18:54:54;5.70;;;4.32;;
11823;SDS011;5969;50.780;7.726;2023-04-24T18:57:21;6.10;;;3.95;;
11823;SDS011;5969;50.780;7.726;2023-04-24T18:59:48;8.55;;;4.18;;
11823;SDS011;5969;50.780;7.726;2023-04-24T19:02:15;6.47;;;4.43;;
11823;SDS011;5969;50.780;7.726;2023-04-24T19:04:43;7.75;;;4.72;;
11823;SDS011;5969;50.780;7.726;2023-04-24T19:07:10;9.57;;;4.75;;
11823;SDS011;5969;50.780;7.726;2023-04-24T19:09:37;5.85;;;4.43;;
11823;SDS011;5969;50.780;7.726;2023-04-24T19:12:04;4.90;;;3.90;;
11823;SDS011;5969;50.780;7.726;2023-04-24T19:14:31;9.98;;;4.78;;
11823;SDS011;5969;50.780;7.726;2023-04-24T19:16:58;6.63;;;4.95;;
11823;SDS011;5969;50.780;7.726;2023-04-24T19:19:25;5.10;;;4.60;;
11823;SDS011;5969;50.780;7.726;2023-04-24T19:21:54;5.90;;;4.30;;
11823;SDS011;5969;50.780;7.726;2023-04-24T19:24:20;8.45;;;4.40;;
11823;SDS011;5969;50.780;7.726;2023-04-24T19:26:47;9.63;;;5.00;;
11823;SDS011;5969;50.780;7.726;2023-04-24T19:29:14;8.48;;;4.72;;
11823;SDS011;5969;50.780;7.726;2023-04-24T19:31:41;5.95;;;4.38;;
11823;SDS011;5969;50.780;7.726;2023-04-24T19:34:07;7.18;;;4.88;;
11823;SDS011;5969;50.780;7.726;2023-04-24T19:36:34;9.02;;;6.50;;
11823;SDS011;5969;50.780;7.726;2023-04-24T19:39:02;6.82;;;4.60;;
11823;SDS011;5969;50.780;7.726;2023-04-24T19:41:29;6.30;;;4.45;;
11823;SDS011;5969;50.780;7.726;2023-04-24T19:43:56;6.93;;;4.50;;
11823;SDS011;5969;50.780;7.726;2023-04-24T19:46:23;7.50;;;5.07;;
11823;SDS011;5969;50.780;7.726;2023-04-24T19:48:50;6.07;;;4.70;;
11823;SDS011;5969;50.780;7.726;2023-04-24T19:51:16;8.43;;;4.63;;
11823;SDS011;5969;50.780;7.726;2023-04-24T19:53:43;9.43;;;4.72;;
11823;SDS011;5969;50.780;7.726;2023-04-24T19:56:11;8.35;;;5.00;;
11823;SDS011;5969;50.780;7.726;2023-04-24T19:58:38;6.55;;;4.22;;
11823;SDS011;5969;50.780;7.726;2023-04-24T20:01:04;6.30;;;4.07;;
11823;SDS011;5969;50.780;7.726;2023-04-24T20:03:31;5.32;;;3.90;;
11823;SDS011;5969;50.780;7.726;2023-04-24T20:05:58;9.50;;;4.10;;
11823;SDS011;5969;50.780;7.726;2023-04-24T20:08:25;5.75;;;4.38;;
11823;SDS011;5969;50.780;7.726;2023-04-24T20:10:52;6.15;;;4.43;;
11823;SDS011;5969;50.780;7.726;2023-04-24T20:13:23;5.40;;;4.20;;
11823;SDS011;5969;50.780;7.726;2023-04-24T20:15:51;6.88;;;4.22;;
11823;SDS011;5969;50.780;7.726;2023-04-24T20:18:18;7.50;;;4.68;;
11823;SDS011;5969;50.780;7.726;2023-04-24T20:20:45;7.20;;;4.45;;
11823;SDS011;5969;50.780;7.726;2023-04-24T20:23:12;6.43;;;4.80;;
11823;SDS011;5969;50.780;7.726;2023-04-24T20:25:39;7.55;;;4.55;;
11823;SDS011;5969;50.780;7.726;2023-04-24T20:28:06;6.72;;;4.07;;
11823;SDS011;5969;50.780;7.726;2023-04-24T20:30:34;7.80;;;5.05;;
11823;SDS011;5969;50.780;7.726;2023-04-24T20:33:02;6.80;;;3.60;;
11823;SDS011;5969;50.780;7.726;2023-04-24T20:35:28;4.32;;;3.92;;
11823;SDS011;5969;50.780;7.726;2023-04-24T20:37:55;7.55;;;3.97;;
11823;SDS011;5969;50.780;7.726;2023-04-24T20:40:23;8.05;;;4.18;;
11823;SDS011;5969;50.780;7.726;2023-04-24T20:42:50;6.07;;;3.65;;
11823;SDS011;5969;50.780;7.726;2023-04-24T20:45:17;6.05;;;3.83;;
11823;SDS011;5969;50.780;7.726;2023-04-24T20:47:45;9.35;;;4.00;;
11823;SDS011;5969;50.780;7.726;2023-04-24T20:50:12;5.40;;;3.60;;
11823;SDS011;5969;50.780;7.726;2023-04-24T20:52:38;5.43;;;3.72;;
11823;SDS011;5969;50.780;7.726;2023-04-24T20:55:05;4.80;;;3.28;;
11823;SDS011;5969;50.780;7.726;2023-04-24T20:57:33;7.18;;;3.75;;
11823;SDS011;5969;50.780;7.726;2023-04-24T21:00:00;5.35;;;3.28;;
11823;SDS011;5969;50.780;7.726;2023-04-24T21:02:32;5.85;;;3.50;;
11823;SDS011;5969;50.780;7.726;2023-04-24T21:05:00;5.10;;;3.10;;
11823;SDS011;5969;50.780;7.726;2023-04-24T21:07:28;5.30;;;3.30;;
11823;SDS011;5969;50.780;7.726;2023-04-24T21:09:56;5.85;;;3.40;;
11823;SDS011;5969;50.780;7.726;2023-04-24T21:12:22;7.53;;;3.35;;
11823;SDS011;5969;50.780;7.726;2023-04-24T21:14:49;5.38;;;3.10;;
11823;SDS011;5969;50.780;7.726;2023-04-24T21:17:16;4.75;;;3.28;;
11823;SDS011;5969;50.780;7.726;2023-04-24T21:19:43;5.57;;;3.17;;
11823;SDS011;5969;50.780;7.726;2023-04-24T21:22:11;3.28;;;2.90;;
11823;SDS011;5969;50.780;7.726;2023-04-24T21:24:38;5.25;;;2.80;;
11823;SDS011;5969;50.780;7.726;2023-04-24T21:27:05;5.03;;;2.72;;
11823;SDS011;5969;50.780;7.726;2023-04-24T21:29:32;4.57;;;2.97;;
11823;SDS011;5969;50.780;7.726;2023-04-24T21:31:59;4.60;;;2.85;;
11823;SDS011;5969;50.780;7.726;2023-04-24T21:34:26;4.93;;;2.53;;
11823;SDS011;5969;50.780;7.726;2023-04-24T21:36:53;3.80;;;2.63;;
11823;SDS011;5969;50.780;7.726;2023-04-24T21:39:21;4.53;;;2.50;;
11823;SDS011;5969;50.780;7.726;2023-04-24T21:41:48;3.63;;;2.45;;
11823;SDS011;5969;50.780;7.726;2023-04-24T21:44:14;4.47;;;2.40;;
11823;SDS011;5969;50.780;7.726;2023-04-24T21:46:41;3.00;;;2.58;;
11823;SDS011;5969;50.780;7.726;2023-04-24T21:49:08;5.15;;;2.47;;
11823;SDS011;5969;50.780;7.726;2023-04-24T21:51:34;9.70;;;3.05;;
11823;SDS011;5969;50.780;7.726;2023-04-24T21:54:01;6.20;;;2.67;;
11823;SDS011;5969;50.780;7.726;2023-04-24T21:56:30;5.88;;;2.47;;
11823;SDS011;5969;50.780;7.726;2023-04-24T21:58:56;6.18;;;2.50;;
11823;SDS011;5969;50.780;7.726;2023-04-24T22:01:23;2.80;;;2.55;;
11823;SDS011;5969;50.780;7.726;2023-04-24T22:03:50;3.42;;;2.80;;
11823;SDS011;5969;50.780;7.726;2023-04-24T22:06:17;3.53;;;2.30;;
11823;SDS011;5969;50.780;7.726;2023-04-24T22:08:43;5.05;;;2.65;;
11823;SDS011;5969;50.780;7.726;2023-04-24T22:11:11;5.55;;;2.70;;
11823;SDS011;5969;50.780;7.726;2023-04-24T22:13:39;5.72;;;2.40;;
11823;SDS011;5969;50.780;7.726;2023-04-24T22:16:06;2.47;;;2.20;;
11823;SDS011;5969;50.780;7.726;2023-04-24T22:18:33;6.05;;;2.65;;
11823;SDS011;5969;50.780;7.726;2023-04-24T22:21:00;4.25;;;2.95;;
11823;SDS011;5969;50.780;7.726;2023-04-24T22:23:26;4.15;;;2.20;;
11823;SDS011;5969;50.780;7.726;2023-04-24T22:25:53;4.80;;;2.60;;
11823;SDS011;5969;50.780;7.726;2023-04-24T22:28:20;3.15;;;2.53;;
11823;SDS011;5969;50.780;7.726;2023-04-24T22:30:48;5.32;;;2.70;;
11823;SDS011;5969;50.780;7.726;2023-04-24T22:33:15;4.30;;;2.38;;
11823;SDS011;5969;50.780;7.726;2023-04-24T22:35:42;2.97;;;2.40;;
11823;SDS011;5969;50.780;7.726;2023-04-24T22:38:08;4.70;;;2.30;;
11823;SDS011;5969;50.780;7.726;2023-04-24T22:40:35;5.75;;;3.10;;
11823;SDS011;5969;50.780;7.726;2023-04-24T22:43:02;5.10;;;2.70;;
11823;SDS011;5969;50.780;7.726;2023-04-24T22:45:28;5.97;;;2.60;;
11823;SDS011;5969;50.780;7.726;2023-04-24T22:47:57;6.45;;;2.72;;
11823;SDS011;5969;50.780;7.726;2023-04-24T22:50:23;7.30;;;2.65;;
11823;SDS011;5969;50.780;7.726;2023-04-24T22:52:51;5.65;;;2.83;;
11823;SDS011;5969;50.780;7.726;2023-04-24T22:55:18;5.07;;;2.70;;
11823;SDS011;5969;50.780;7.726;2023-04-24T22:57:46;5.40;;;3.08;;
